createdAt,value
2023-05-09T00:02:00.074Z,100.00
2023-05-09T00:04:26.912Z,100.00
2023-05-09T00:06:53.624Z,100.00
2023-05-09T00:09:20.409Z,100.00
2023-05-09T00:11:48.218Z,100.00
2023-05-09T00:14:15.041Z,100.00
2023-05-09T00:16:45.007Z,100.00
2023-05-09T00:19:13.152Z,98.91
2023-05-09T00:21:42.403Z,100.00
2023-05-09T00:24:09.128Z,100.00
2023-05-09T00:26:36.545Z,100.00
2023-05-09T00:29:03.272Z,100.00
2023-05-09T00:31:29.945Z,100.00
2023-05-09T00:33:56.569Z,100.00
2023-05-09T00:36:26.176Z,100.00
2023-05-09T00:38:53.661Z,100.00
2023-05-09T00:41:21.530Z,100.00
2023-05-09T00:44:07.075Z,100.00
2023-05-09T00:46:34.002Z,100.00
2023-05-09T00:49:19.556Z,100.00
2023-05-09T00:51:47.544Z,100.00
2023-05-09T00:54:14.582Z,100.00
2023-05-09T00:56:41.664Z,100.00
2023-05-09T00:59:08.363Z,100.00
2023-05-09T01:01:37.091Z,100.00
2023-05-09T01:04:04.078Z,100.00
2023-05-09T01:06:32.903Z,100.00
2023-05-09T01:09:07.939Z,100.00
2023-05-09T01:12:03.209Z,100.00
2023-05-09T01:15:02.743Z,100.00
2023-05-09T01:17:59.036Z,100.00
2023-05-09T01:21:03.887Z,100.00
2023-05-09T01:24:08.585Z,100.00
2023-05-09T01:27:01.844Z,100.00
2023-05-09T01:29:37.516Z,100.00
2023-05-09T01:32:28.134Z,100.00
2023-05-09T01:34:59.490Z,100.00
2023-05-09T01:37:33.901Z,100.00
2023-05-09T01:40:08.413Z,100.00
2023-05-09T01:42:43.742Z,100.00
2023-05-09T01:45:12.731Z,100.00
2023-05-09T01:47:42.626Z,100.00
2023-05-09T01:50:11.763Z,100.00
2023-05-09T01:52:42.684Z,100.00
2023-05-09T01:55:10.926Z,100.00
2023-05-09T01:57:41.003Z,100.00
2023-05-09T02:00:10.299Z,100.00
2023-05-09T02:02:38.829Z,100.00
2023-05-09T02:05:06.656Z,100.00
2023-05-09T02:07:33.902Z,100.00
2023-05-09T02:10:02.467Z,100.00
2023-05-09T02:12:31.427Z,100.00
2023-05-09T02:14:58.140Z,100.00
2023-05-09T02:17:43.809Z,100.00
2023-05-09T02:20:11.761Z,100.00
2023-05-09T02:22:41.382Z,100.00
2023-05-09T02:25:09.346Z,100.00
2023-05-09T02:27:56.057Z,100.00
2023-05-09T02:30:26.220Z,100.00
2023-05-09T02:33:01.394Z,100.00
2023-05-09T02:35:29.166Z,100.00
2023-05-09T02:38:14.620Z,100.00
2023-05-09T02:40:44.487Z,100.00
2023-05-09T02:43:29.738Z,100.00
2023-05-09T02:45:56.512Z,100.00
2023-05-09T02:48:23.435Z,100.00
2023-05-09T02:50:50.164Z,100.00
2023-05-09T02:53:16.769Z,100.00
2023-05-09T02:55:43.556Z,100.00
2023-05-09T02:58:15.104Z,100.00
2023-05-09T03:00:42.635Z,100.00
2023-05-09T03:03:09.573Z,100.00
2023-05-09T03:05:55.182Z,100.00
2023-05-09T03:08:21.819Z,100.00
2023-05-09T03:10:48.473Z,100.00
2023-05-09T03:13:15.253Z,100.00
2023-05-09T03:15:45.272Z,100.00
2023-05-09T03:18:12.538Z,100.00
2023-05-09T03:20:39.248Z,100.00
2023-05-09T03:23:07.841Z,100.00
2023-05-09T03:25:34.677Z,100.00
2023-05-09T03:28:01.590Z,100.00
2023-05-09T03:30:28.322Z,100.00
2023-05-09T03:32:55.884Z,100.00
2023-05-09T03:35:28.808Z,100.00
2023-05-09T03:37:55.436Z,100.00
2023-05-09T03:40:22.146Z,100.00
2023-05-09T03:43:07.627Z,100.00
2023-05-09T03:45:36.206Z,100.00
2023-05-09T03:48:05.417Z,100.00
2023-05-09T03:50:34.434Z,100.00
2023-05-09T03:53:01.276Z,100.00
2023-05-09T03:55:30.578Z,100.00
2023-05-09T03:57:57.621Z,100.00
2023-05-09T04:00:26.862Z,100.00
2023-05-09T04:02:53.741Z,100.00
2023-05-09T04:05:21.512Z,100.00
2023-05-09T04:07:48.244Z,100.00
2023-05-09T04:10:15.518Z,100.00
2023-05-09T04:12:44.896Z,100.00
2023-05-09T04:15:15.415Z,100.00
2023-05-09T04:17:42.935Z,100.00
2023-05-09T04:20:10.909Z,100.00
2023-05-09T04:22:37.709Z,100.00
2023-05-09T04:25:06.605Z,100.00
2023-05-09T04:27:33.867Z,100.00
2023-05-09T04:30:00.525Z,100.00
2023-05-09T04:32:28.088Z,100.00
2023-05-09T04:34:54.772Z,100.00
2023-05-09T04:37:22.168Z,100.00
2023-05-09T04:40:10.493Z,100.00
2023-05-09T04:42:37.660Z,100.00
2023-05-09T04:45:05.641Z,100.00
2023-05-09T04:47:50.956Z,100.00
2023-05-09T04:50:17.690Z,100.00
2023-05-09T04:52:44.502Z,100.00
2023-05-09T04:55:11.421Z,100.00
2023-05-09T04:57:38.164Z,100.00
2023-05-09T05:00:08.028Z,100.00
2023-05-09T05:02:34.949Z,100.00
2023-05-09T05:05:21.784Z,100.00
2023-05-09T05:07:50.533Z,100.00
2023-05-09T05:10:17.240Z,100.00
2023-05-09T05:12:43.981Z,100.00
2023-05-09T05:15:11.144Z,100.00
2023-05-09T05:17:38.928Z,100.00
2023-05-09T05:20:07.563Z,100.00
2023-05-09T05:22:34.341Z,100.00
2023-05-09T05:25:03.448Z,100.00
2023-05-09T05:27:30.114Z,100.00
2023-05-09T05:30:18.380Z,100.00
2023-05-09T05:32:45.037Z,100.00
2023-05-09T05:35:12.185Z,100.00
2023-05-09T05:37:40.423Z,100.00
2023-05-09T05:40:08.149Z,100.00
2023-05-09T05:42:34.956Z,100.00
2023-05-09T05:45:04.454Z,100.00
2023-05-09T05:47:35.653Z,100.00
2023-05-09T05:50:11.685Z,100.00
2023-05-09T05:52:39.379Z,100.00
2023-05-09T05:55:12.492Z,100.00
2023-05-09T05:57:39.485Z,100.00
2023-05-09T06:00:14.739Z,100.00
2023-05-09T06:02:45.368Z,100.00
2023-05-09T06:05:12.624Z,100.00
2023-05-09T06:07:41.961Z,100.00
2023-05-09T06:10:09.018Z,100.00
2023-05-09T06:12:36.702Z,100.00
2023-05-09T06:15:05.864Z,100.00
2023-05-09T06:17:33.765Z,100.00
2023-05-09T06:20:00.599Z,100.00
2023-05-09T06:22:27.389Z,100.00
2023-05-09T06:24:55.904Z,100.00
2023-05-09T06:27:22.760Z,100.00
2023-05-09T06:29:52.745Z,100.00
2023-05-09T06:32:19.644Z,100.00
2023-05-09T06:34:46.526Z,100.00
2023-05-09T06:37:15.321Z,100.00
2023-05-09T06:39:42.260Z,100.00
2023-05-09T06:42:09.622Z,100.00
2023-05-09T06:44:55.030Z,100.00
2023-05-09T06:47:21.727Z,100.00
2023-05-09T06:50:07.431Z,100.00
2023-05-09T06:52:34.077Z,100.00
2023-05-09T06:55:19.538Z,100.00
2023-05-09T06:57:46.238Z,100.00
2023-05-09T07:00:13.835Z,100.00
2023-05-09T07:02:43.251Z,100.00
2023-05-09T07:05:10.791Z,100.00
2023-05-09T07:07:38.901Z,100.00
2023-05-09T07:10:11.843Z,100.00
2023-05-09T07:12:40.901Z,100.00
2023-05-09T07:15:11.059Z,100.00
2023-05-09T07:17:37.938Z,100.00
2023-05-09T07:20:05.738Z,100.00
2023-05-09T07:22:34.126Z,100.00
2023-05-09T07:25:02.377Z,100.00
2023-05-09T07:27:31.237Z,100.00
2023-05-09T07:29:57.929Z,100.00
2023-05-09T07:32:28.876Z,100.00
2023-05-09T07:34:57.883Z,100.00
2023-05-09T07:37:24.535Z,100.00
2023-05-09T07:39:52.508Z,100.00
2023-05-09T07:42:19.148Z,100.00
2023-05-09T07:44:46.464Z,100.00
2023-05-09T07:47:13.048Z,100.00
2023-05-09T07:49:40.726Z,100.00
2023-05-09T07:52:07.413Z,100.00
2023-05-09T07:54:34.126Z,100.00
2023-05-09T07:57:00.802Z,100.00
2023-05-09T07:59:27.854Z,100.00
2023-05-09T08:01:54.607Z,100.00
2023-05-09T08:04:24.895Z,100.00
2023-05-09T08:06:51.625Z,100.00
2023-05-09T08:09:18.767Z,100.00
2023-05-09T08:11:46.002Z,100.00
2023-05-09T08:14:15.622Z,100.00
2023-05-09T08:16:45.163Z,100.00
2023-05-09T08:19:11.735Z,100.00
2023-05-09T08:21:57.069Z,100.00
2023-05-09T08:24:24.127Z,100.00
2023-05-09T08:26:50.820Z,100.00
2023-05-09T08:29:18.358Z,100.00
2023-05-09T08:31:45.188Z,100.00
2023-05-09T08:34:14.005Z,100.00
2023-05-09T08:36:45.581Z,100.00
2023-05-09T08:39:12.311Z,99.21
2023-05-09T08:41:39.898Z,100.00
2023-05-09T08:44:06.984Z,100.00
2023-05-09T08:46:42.393Z,99.07
2023-05-09T08:49:09.983Z,99.52
2023-05-09T08:51:43.406Z,97.50
2023-05-09T08:54:11.387Z,98.38
2023-05-09T08:56:38.279Z,97.26
2023-05-09T08:59:05.940Z,95.86
2023-05-09T09:01:36.846Z,95.48
2023-05-09T09:04:09.095Z,95.88
2023-05-09T09:06:39.559Z,95.98
2023-05-09T09:09:25.497Z,96.00
2023-05-09T09:11:53.459Z,95.85
2023-05-09T09:14:27.698Z,95.30
2023-05-09T09:16:56.159Z,95.45
2023-05-09T09:19:30.704Z,94.74
2023-05-09T09:21:59.769Z,95.26
2023-05-09T09:24:26.454Z,93.76
2023-05-09T09:26:53.240Z,95.23
2023-05-09T09:29:21.072Z,95.24
2023-05-09T09:31:55.165Z,94.83
2023-05-09T09:34:23.544Z,95.52
2023-05-09T09:36:50.649Z,95.69
2023-05-09T09:39:17.555Z,95.70
2023-05-09T09:41:46.968Z,95.89
2023-05-09T09:44:16.127Z,95.87
2023-05-09T09:46:51.383Z,95.95
2023-05-09T09:49:20.236Z,95.78
2023-05-09T09:51:57.953Z,96.22
2023-05-09T09:54:29.297Z,94.23
2023-05-09T09:56:57.246Z,94.46
2023-05-09T09:59:25.918Z,94.53
2023-05-09T10:02:09.335Z,94.25
2023-05-09T10:04:39.453Z,94.06
2023-05-09T10:07:14.876Z,93.30
2023-05-09T10:09:49.347Z,92.71
2023-05-09T10:12:19.800Z,91.67
2023-05-09T10:14:48.313Z,91.93
2023-05-09T10:17:16.251Z,91.40
2023-05-09T10:19:47.662Z,91.09
2023-05-09T10:22:17.981Z,91.08
2023-05-09T10:24:57.649Z,90.15
2023-05-09T10:27:27.646Z,91.89
2023-05-09T10:30:08.711Z,92.06
2023-05-09T10:33:02.921Z,92.15
2023-05-09T10:35:40.753Z,91.98
2023-05-09T10:38:08.007Z,92.60
2023-05-09T10:40:35.348Z,93.44
2023-05-09T10:43:02.100Z,93.21
2023-05-09T10:45:29.095Z,92.90
2023-05-09T10:47:58.347Z,92.28
2023-05-09T10:50:25.962Z,92.33
2023-05-09T10:53:17.954Z,90.63
2023-05-09T10:55:50.763Z,91.37
2023-05-09T10:58:22.874Z,90.28
2023-05-09T11:00:50.809Z,88.84
2023-05-09T11:03:19.686Z,89.49
2023-05-09T11:05:48.176Z,89.12
2023-05-09T11:08:30.721Z,90.24
2023-05-09T11:11:00.753Z,88.70
2023-05-09T11:13:31.683Z,86.66
2023-05-09T11:16:17.038Z,88.09
2023-05-09T11:18:52.525Z,88.52
2023-05-09T11:21:20.532Z,85.63
2023-05-09T11:23:48.180Z,87.86
2023-05-09T11:26:15.993Z,88.53
2023-05-09T11:28:53.751Z,85.92
2023-05-09T11:31:27.510Z,84.65
2023-05-09T11:34:07.186Z,83.09
2023-05-09T11:36:34.081Z,84.93
2023-05-09T11:39:08.556Z,80.04
2023-05-09T11:41:46.584Z,78.27
2023-05-09T11:44:21.484Z,82.63
2023-05-09T11:46:49.462Z,75.66
2023-05-09T11:49:17.761Z,79.94
2023-05-09T11:51:44.437Z,79.89
2023-05-09T11:54:13.674Z,79.24
2023-05-09T11:56:42.080Z,79.96
2023-05-09T11:59:13.219Z,71.75
2023-05-09T12:01:39.952Z,78.76
2023-05-09T12:04:08.970Z,72.50
2023-05-09T12:06:37.798Z,71.27
2023-05-09T12:09:05.281Z,66.51
2023-05-09T12:11:32.558Z,76.70
2023-05-09T12:13:59.385Z,73.75
2023-05-09T12:16:26.131Z,75.41
2023-05-09T12:18:53.054Z,73.79
2023-05-09T12:21:22.056Z,73.59
2023-05-09T12:23:51.236Z,76.03
2023-05-09T12:26:22.710Z,76.27
2023-05-09T12:28:50.186Z,72.71
2023-05-09T12:31:17.574Z,74.91
2023-05-09T12:33:44.748Z,75.64
2023-05-09T12:36:13.616Z,76.42
2023-05-09T12:38:40.298Z,76.17
2023-05-09T12:41:31.052Z,74.69
2023-05-09T12:44:02.027Z,76.18
2023-05-09T12:46:28.782Z,77.42
2023-05-09T12:48:55.738Z,80.64
2023-05-09T12:51:23.042Z,78.64
2023-05-09T12:53:50.088Z,80.28
2023-05-09T12:56:19.326Z,82.01
2023-05-09T12:58:51.309Z,81.95
2023-05-09T13:01:23.091Z,82.59
2023-05-09T13:04:00.207Z,80.72
2023-05-09T13:06:27.269Z,79.07
2023-05-09T13:09:01.665Z,78.00
2023-05-09T13:11:54.242Z,77.07
2023-05-09T13:14:22.628Z,80.83
2023-05-09T13:16:49.261Z,81.80
2023-05-09T13:19:39.448Z,80.39
2023-05-09T13:22:07.214Z,78.98
2023-05-09T13:24:33.886Z,80.21
2023-05-09T13:27:00.681Z,80.51
2023-05-09T13:29:27.365Z,82.10
2023-05-09T13:31:54.715Z,81.25
2023-05-09T13:34:23.169Z,82.76
2023-05-09T13:37:09.161Z,79.91
2023-05-09T13:39:36.545Z,82.19
2023-05-09T13:42:04.980Z,81.76
2023-05-09T13:44:31.704Z,82.58
2023-05-09T13:47:00.235Z,82.93
2023-05-09T13:49:44.081Z,79.55
2023-05-09T13:52:12.767Z,82.91
2023-05-09T13:54:41.512Z,83.13
2023-05-09T13:57:08.198Z,82.74
2023-05-09T13:59:35.448Z,80.23
2023-05-09T14:02:02.585Z,83.55
2023-05-09T14:04:35.069Z,84.04
2023-05-09T14:07:01.974Z,82.11
2023-05-09T14:09:29.670Z,83.58
2023-05-09T14:11:57.161Z,84.69
2023-05-09T14:14:43.435Z,83.92
2023-05-09T14:17:10.321Z,84.49
2023-05-09T14:19:38.864Z,85.50
2023-05-09T14:22:05.497Z,86.06
2023-05-09T14:24:33.474Z,85.42
2023-05-09T14:27:00.312Z,85.96
2023-05-09T14:29:27.406Z,86.85
2023-05-09T14:31:56.163Z,88.32
2023-05-09T14:34:23.087Z,90.40
2023-05-09T14:36:50.301Z,90.13
2023-05-09T14:39:17.143Z,93.82
2023-05-09T14:41:47.848Z,93.02
2023-05-09T14:44:14.588Z,97.17
2023-05-09T14:46:48.435Z,98.58
2023-05-09T14:49:15.176Z,97.35
2023-05-09T14:51:50.717Z,97.83
2023-05-09T14:54:17.339Z,96.91
2023-05-09T14:56:44.672Z,99.17
2023-05-09T14:59:11.846Z,98.74
2023-05-09T15:01:39.764Z,98.07
2023-05-09T15:04:06.660Z,97.32
2023-05-09T15:06:33.654Z,100.00
2023-05-09T15:09:01.927Z,99.62
2023-05-09T15:11:28.822Z,100.00
2023-05-09T15:14:18.859Z,100.00
2023-05-09T15:16:45.760Z,97.68
2023-05-09T15:19:12.748Z,100.00
2023-05-09T15:21:58.856Z,100.00
2023-05-09T15:24:30.528Z,100.00
2023-05-09T15:26:57.257Z,100.00
2023-05-09T15:29:26.046Z,100.00
2023-05-09T15:31:55.745Z,100.00
2023-05-09T15:34:24.015Z,100.00
2023-05-09T15:36:50.674Z,100.00
2023-05-09T15:39:18.070Z,100.00
2023-05-09T15:41:45.010Z,100.00
2023-05-09T15:44:14.485Z,100.00
2023-05-09T15:46:41.267Z,100.00
2023-05-09T15:49:08.173Z,100.00
2023-05-09T15:51:35.151Z,100.00
2023-05-09T15:54:06.962Z,100.00
2023-05-09T15:56:33.555Z,100.00
2023-05-09T15:59:00.458Z,100.00
2023-05-09T16:01:27.277Z,100.00
2023-05-09T16:03:54.025Z,100.00
2023-05-09T16:06:27.013Z,100.00
2023-05-09T16:08:54.428Z,100.00
2023-05-09T16:11:21.965Z,100.00
2023-05-09T16:14:11.375Z,100.00
2023-05-09T16:16:39.592Z,100.00
2023-05-09T16:19:06.932Z,100.00
2023-05-09T16:21:52.548Z,100.00
2023-05-09T16:24:19.227Z,100.00
2023-05-09T16:26:48.042Z,100.00
2023-05-09T16:29:14.686Z,100.00
2023-05-09T16:31:41.388Z,100.00
2023-05-09T16:34:09.161Z,99.58
2023-05-09T16:36:37.572Z,100.00
2023-05-09T16:39:04.234Z,100.00
2023-05-09T16:41:32.775Z,100.00
2023-05-09T16:44:00.246Z,100.00
2023-05-09T16:46:27.205Z,100.00
2023-05-09T16:48:55.701Z,100.00
2023-05-09T16:51:28.327Z,100.00
2023-05-09T16:53:55.358Z,99.52
2023-05-09T16:56:22.705Z,100.00
2023-05-09T16:58:49.977Z,100.00
2023-05-09T17:01:16.753Z,100.00
2023-05-09T17:03:43.512Z,100.00
2023-05-09T17:06:10.432Z,100.00
2023-05-09T17:08:37.158Z,100.00
2023-05-09T17:11:05.496Z,100.00
2023-05-09T17:13:32.237Z,100.00
2023-05-09T17:15:59.040Z,100.00
2023-05-09T17:18:36.570Z,100.00
2023-05-09T17:21:04.858Z,100.00
2023-05-09T17:23:31.932Z,100.00
2023-05-09T17:26:01.099Z,100.00
2023-05-09T17:31:18.502Z,100.00
2023-05-09T17:33:47.308Z,100.00
2023-05-09T17:36:14.077Z,100.00
2023-05-09T17:38:41.026Z,100.00
2023-05-09T17:41:08.217Z,100.00
2023-05-09T17:43:35.035Z,100.00
2023-05-09T17:46:01.809Z,100.00
2023-05-09T17:48:30.504Z,100.00
2023-05-09T17:50:59.650Z,100.00
2023-05-09T17:53:26.625Z,100.00
2023-05-09T17:55:53.285Z,100.00
2023-05-09T17:58:20.889Z,100.00
2023-05-09T18:00:47.604Z,100.00
2023-05-09T18:03:33.014Z,100.00
2023-05-09T18:06:02.892Z,100.00
2023-05-09T18:08:29.982Z,100.00
2023-05-09T18:10:57.515Z,100.00
2023-05-09T18:13:24.450Z,100.00
2023-05-09T18:15:51.512Z,100.00
2023-05-09T18:18:22.443Z,100.00
2023-05-09T18:20:49.269Z,100.00
2023-05-09T18:23:16.114Z,100.00
2023-05-09T18:25:42.779Z,100.00
2023-05-09T18:28:13.962Z,100.00
2023-05-09T18:30:41.357Z,100.00
2023-05-09T18:33:08.216Z,100.00
2023-05-09T18:35:35.202Z,100.00
2023-05-09T18:38:02.143Z,100.00
2023-05-09T18:40:28.819Z,100.00
2023-05-09T18:42:55.453Z,100.00
2023-05-09T18:45:22.458Z,100.00
2023-05-09T18:47:49.286Z,100.00
2023-05-09T18:50:16.473Z,100.00
2023-05-09T18:53:03.254Z,100.00
2023-05-09T18:55:29.872Z,100.00
2023-05-09T18:57:56.680Z,100.00
2023-05-09T19:00:23.816Z,100.00
2023-05-09T19:02:50.508Z,100.00
2023-05-09T19:05:17.317Z,100.00
2023-05-09T19:07:43.921Z,100.00
2023-05-09T19:10:11.043Z,100.00
2023-05-09T19:12:37.757Z,100.00
2023-05-09T19:15:07.566Z,100.00
2023-05-09T19:17:34.703Z,100.00
2023-05-09T19:20:02.657Z,100.00
2023-05-09T19:22:29.655Z,100.00
2023-05-09T19:25:01.326Z,100.00
2023-05-09T19:27:32.859Z,100.00
2023-05-09T19:30:00.021Z,100.00
2023-05-09T19:32:27.350Z,100.00
2023-05-09T19:34:54.114Z,100.00
2023-05-09T19:37:20.758Z,100.00
2023-05-09T19:39:47.611Z,100.00
2023-05-09T19:42:15.054Z,100.00
2023-05-09T19:44:41.901Z,100.00
2023-05-09T19:47:14.265Z,100.00
2023-05-09T19:49:42.869Z,100.00
2023-05-09T19:52:10.758Z,100.00
2023-05-09T19:54:37.535Z,100.00
2023-05-09T19:57:06.582Z,100.00
2023-05-09T19:59:33.380Z,100.00
2023-05-09T20:02:05.929Z,100.00
2023-05-09T20:04:35.213Z,100.00
2023-05-09T20:07:05.166Z,100.00
2023-05-09T20:09:32.996Z,100.00
2023-05-09T20:12:02.129Z,100.00
2023-05-09T20:14:29.789Z,100.00
2023-05-09T20:16:57.117Z,100.00
2023-05-09T20:19:23.989Z,100.00
2023-05-09T20:22:09.168Z,100.00
2023-05-09T20:24:35.801Z,100.00
2023-05-09T20:27:03.183Z,100.00
2023-05-09T20:29:29.928Z,100.00
2023-05-09T20:31:56.617Z,100.00
2023-05-09T20:34:24.650Z,100.00
2023-05-09T20:36:53.609Z,100.00
2023-05-09T20:39:21.243Z,100.00
2023-05-09T20:41:49.482Z,100.00
2023-05-09T20:44:17.719Z,100.00
2023-05-09T20:46:46.149Z,100.00
2023-05-09T20:49:12.934Z,100.00
2023-05-09T20:51:39.595Z,100.00
2023-05-09T20:54:08.373Z,100.00
2023-05-09T20:56:35.689Z,100.00
2023-05-09T20:59:04.445Z,100.00
2023-05-09T21:01:35.504Z,100.00
2023-05-09T21:04:08.337Z,100.00
2023-05-09T21:06:36.558Z,100.00
2023-05-09T21:09:06.349Z,100.00
2023-05-09T21:11:33.101Z,100.00
2023-05-09T21:14:00.114Z,100.00
2023-05-09T21:16:33.967Z,100.00
2023-05-09T21:19:04.940Z,100.00
2023-05-09T21:21:33.645Z,100.00
2023-05-09T21:24:03.348Z,100.00
2023-05-09T21:26:49.008Z,100.00
2023-05-09T21:29:15.679Z,100.00
2023-05-09T21:31:42.410Z,100.00
2023-05-09T21:34:11.593Z,100.00
2023-05-09T21:36:40.014Z,100.00
2023-05-09T21:42:16.352Z,100.00
2023-05-09T21:44:43.055Z,100.00
2023-05-09T21:47:10.277Z,100.00
2023-05-09T21:49:37.725Z,100.00
2023-05-09T21:52:04.685Z,100.00
2023-05-09T21:54:33.751Z,100.00
2023-05-09T21:57:01.072Z,100.00
2023-05-09T21:59:46.345Z,100.00
2023-05-09T22:02:13.057Z,100.00
2023-05-09T22:04:40.312Z,100.00
2023-05-09T22:07:06.985Z,100.00
2023-05-09T22:09:33.631Z,100.00
2023-05-09T22:12:00.211Z,100.00
2023-05-09T22:14:27.093Z,100.00
2023-05-09T22:16:55.303Z,100.00
2023-05-09T22:19:21.974Z,100.00
2023-05-09T22:21:50.372Z,100.00
2023-05-09T22:24:17.020Z,100.00
2023-05-09T22:27:02.489Z,100.00
2023-05-09T22:29:34.491Z,100.00
2023-05-09T22:32:02.281Z,100.00
2023-05-09T22:34:28.971Z,100.00
2023-05-09T22:36:55.517Z,100.00
2023-05-09T22:39:40.853Z,100.00
2023-05-09T22:42:11.029Z,100.00
2023-05-09T22:44:39.564Z,100.00
2023-05-09T22:47:09.808Z,100.00
2023-05-09T22:49:36.614Z,100.00
2023-05-09T22:52:05.018Z,100.00
2023-05-09T22:54:31.753Z,100.00
2023-05-09T22:56:58.403Z,100.00
2023-05-09T22:59:26.694Z,100.00
2023-05-09T23:01:53.621Z,100.00
2023-05-09T23:04:20.721Z,100.00
2023-05-09T23:06:47.483Z,100.00
2023-05-09T23:09:14.118Z,100.00
2023-05-09T23:11:59.734Z,100.00
2023-05-09T23:14:26.903Z,100.00
2023-05-09T23:16:56.695Z,100.00
2023-05-09T23:19:23.506Z,100.00
2023-05-09T23:21:51.489Z,100.00
2023-05-09T23:24:18.165Z,100.00
2023-05-09T23:26:45.228Z,100.00
2023-05-09T23:29:12.052Z,100.00
2023-05-09T23:31:42.940Z,100.00
2023-05-09T23:34:09.615Z,100.00
2023-05-09T23:36:36.252Z,100.00
2023-05-09T23:39:03.520Z,100.00
2023-05-09T23:41:30.192Z,100.00
2023-05-09T23:44:15.615Z,100.00
2023-05-09T23:46:42.425Z,100.00
2023-05-09T23:49:14.979Z,100.00
2023-05-09T23:51:41.752Z,100.00
2023-05-09T23:54:08.668Z,100.00
2023-05-09T23:56:36.084Z,100.00
2023-05-09T23:59:02.749Z,100.00
